Data for 10/09/2015

Time Sea-Level Adjusted Pressure Absolute Pressure Temperature Relative Humidity Dew Point   
(mb) (inHg) (mb) (inHg) (C) (F) (%) (C) (F)
00:05 1026 30.3 856 25.28 11 51.8 69 5.5 41.9
00:10 1026 30.3 856 25.28 10.7 51.3 70 5.4 41.8
00:15 1026 30.3 855 25.25 10.5 50.9 70 5.4 41.7
00:20 1026 30.3 855 25.25 10.3 50.5 72 5.5 41.8
00:25 1026 30.3 855 25.25 10 50.1 73 5.4 41.7
00:30 1026 30.3 855 25.25 10 49.9 73 5.4 41.7
00:35 1026 30.3 855 25.25 10.1 50.2 72 5.4 41.6
00:40 1026 30.3 855 25.25 10.2 50.4 72 5.4 41.7
00:45 1026 30.3 855 25.25 10.4 50.7 70 5.2 41.3
00:50 1026 30.3 855 25.25 10.4 50.7 71 5.4 41.7
00:55 1026 30.3 855 25.25 10.4 50.7 71 5.3 41.6
01:00 1026 30.3 855 25.25 10.2 50.4 72 5.5 41.9
01:05 1026 30.3 855 25.25 10 49.9 73 5.4 41.7
01:10 1026 30.3 855 25.25 10.1 50.2 71 5.1 41.3
01:15 1026 30.3 855 25.25 10.7 51.3 69 5.3 41.5
01:20 1026 30.3 855 25.25 10.7 51.3 69 5.4 41.7
01:25 1026 30.3 855 25.25 10.7 51.3 69 5.3 41.5
01:30 1026 30.3 855 25.25 10.6 51.1 70 5.4 41.7
01:35 1026 30.3 855 25.25 10.2 50.4 72 5.5 41.8
01:40 1026 30.3 855 25.25 10 50 73 5.3 41.6
01:45 1026 30.3 855 25.25 10 50 72 5.1 41.2
01:50 1026 30.3 855 25.25 10.4 50.7 69 5.1 41.2
01:55 1026 30.3 855 25.25 10.7 51.2 69 5.3 41.6
02:00 1026 30.3 855 25.25 10.6 51 70 5.4 41.6
02:05 1026 30.3 855 25.25 10.5 50.8 70 5.3 41.5
02:10 1026 30.3 855 25.25 10.7 51.3 68 5.1 41.2
02:15 1026 30.3 855 25.25 11.2 52.2 66 5.1 41.2
02:20 1026 30.3 855 25.25 11.3 52.3 67 5.4 41.8
02:25 1026 30.3 855 25.25 10.9 51.7 67 5.2 41.3
02:30 1026 30.3 855 25.25 11.1 52 65 4.8 40.6
02:35 1026 30.3 855 25.25 11.3 52.3 66 5.1 41.3
02:40 1026 30.3 855 25.25 11.1 51.9 67 5.2 41.3
02:45 1026 30.3 855 25.25 11 51.7 67 5.1 41.1
02:50 1026 30.3 855 25.25 11.1 51.9 65 4.7 40.5
02:55 1026 30.3 855 25.25 11.2 52.2 65 4.9 40.8
03:00 1026 30.3 855 25.25 11.1 51.9 66 4.9 40.9
03:05 1026 30.3 855 25.25 10.8 51.4 68 5.1 41.2
03:10 1026 30.3 855 25.25 10.6 51 68 5 41
03:15 1026 30.3 855 25.25 10.3 50.5 71 5.4 41.6
03:20 1026 30.3 855 25.25 9.8 49.7 71 4.9 40.9
03:25 1026 30.3 855 25.25 10.3 50.5 69 4.8 40.7
03:30 1026 30.3 855 25.25 10.5 50.9 67 4.7 40.4
03:35 1026 30.3 855 25.25 10.7 51.3 67 4.8 40.6
03:40 1026 30.3 855 25.25 10.5 51 68 4.9 40.8
03:45 1026 30.3 855 25.25 10.7 51.2 65 4.4 40
03:50 1026 30.3 855 25.25 10.9 51.6 65 4.5 40.2
03:55 1026 30.3 855 25.25 10.8 51.4 66 4.8 40.7
04:00 1026 30.3 855 25.25 10.4 50.6 69 4.9 40.8
04:05 1026 30.3 855 25.25 9.8 49.7 70 4.7 40.5
04:10 1026 30.3 855 25.25 9.7 49.5 70 4.6 40.3
04:15 1026 30.3 855 25.25 9.8 49.6 70 4.6 40.4
04:20 1026 30.3 855 25.25 9.8 49.7 70 4.5 40.2
04:25 1026 30.3 855 25.25 9.8 49.6 70 4.5 40.1
04:30 1026 30.3 855 25.25 9.6 49.2 70 4.4 40
04:35 1026 30.3 855 25.25 9.4 48.9 71 4.4 39.9
04:40 1026 30.3 855 25.25 9.2 48.6 71 4.3 39.7
04:45 1026 30.3 855 25.25 9.2 48.5 71 4.3 39.7
04:50 1025 30.27 855 25.25 9.3 48.7 71 4.3 39.7
04:55 1025 30.27 855 25.25 9.4 48.9 71 4.4 39.9
05:00 1025 30.27 854 25.22 9.7 49.5 68 4.2 39.6
05:05 1025 30.27 854 25.22 10 50 68 4.3 39.8
05:10 1025 30.27 854 25.22 9.8 49.6 69 4.4 39.9
05:15 1025 30.27 855 25.25 9.4 48.8 70 4.2 39.6
05:20 1025 30.27 855 25.25 9.6 49.2 69 4.3 39.7
05:25 1025 30.27 854 25.22 9.8 49.6 69 4.4 39.9
05:30 1025 30.27 854 25.22 10 49.9 68 4.3 39.8
05:35 1025 30.27 854 25.22 10.2 50.4 68 4.5 40.1
05:40 1025 30.27 854 25.22 10 50.1 68 4.5 40.1
05:45 1025 30.27 854 25.22 9.7 49.4 69 4.4 39.9
05:50 1025 30.27 854 25.22 9.5 49.1 70 4.3 39.7
05:55 1025 30.27 854 25.22 9.6 49.2 69 4.1 39.4
06:00 1025 30.27 854 25.22 9.8 49.6 67 4.1 39.3
06:05 1025 30.27 854 25.22 10.2 50.4 65 3.9 39
06:10 1025 30.27 854 25.22 10.5 51 64 4 39.2
06:15 1025 30.27 854 25.22 10.5 50.9 65 4.2 39.5
06:20 1025 30.27 854 25.22 10.3 50.6 64 3.9 39.1
06:25 1025 30.27 854 25.22 10.3 50.6 63 3.7 38.7
06:30 1025 30.27 854 25.22 10.5 50.9 64 4 39.2
06:35 1025 30.27 854 25.22 10.9 51.7 61 3.6 38.5
06:40 1025 30.27 854 25.22 11.8 53.3 59 4 39.3
06:45 1025 30.27 854 25.22 11.7 53.1 60 4.3 39.7
06:50 1025 30.27 854 25.22 11.4 52.4 60 3.9 39.1
06:55 1025 30.27 854 25.22 11.4 52.4 61 4.1 39.4
07:00 1025 30.27 854 25.22 11.1 52.1 61 4 39.2
07:05 1025 30.27 854 25.22 11.1 52 61 3.9 39
07:10 1025 30.27 854 25.22 10.7 51.3 64 4.2 39.6
07:15 1025 30.27 854 25.22 10.4 50.7 62 3.5 38.4
07:20 1025 30.27 854 25.22 10.5 50.9 61 3.5 38.2
07:25 1025 30.27 854 25.22 10.6 51 62 3.6 38.6
07:30 1025 30.27 854 25.22 10.3 50.6 62 3.4 38.1
07:35 1025 30.27 854 25.22 10.2 50.4 64 3.8 38.8
07:40 1025 30.27 854 25.22 10.2 50.3 67 4.4 40
07:45 1025 30.27 854 25.22 10 50 68 4.4 39.9
07:50 1025 30.27 854 25.22 9.7 49.5 68 4.1 39.4
07:55 1025 30.27 854 25.22 9.6 49.3 67 3.9 39
08:00 1025 30.27 854 25.22 9.9 49.8 66 3.8 38.8
08:05 1025 30.27 854 25.22 10.1 50.1 67 4.2 39.6
08:10 1025 30.27 854 25.22 10.1 50.1 66 4 39.1
08:15 1025 30.27 854 25.22 10.8 51.4 60 3.3 38
08:20 1025 30.27 854 25.22 11.5 52.6 60 4 39.2
08:25 1025 30.27 854 25.22 12 53.6 58 4 39.2
08:30 1025 30.27 854 25.22 12.2 54 59 4.6 40.2
08:35 1025 30.27 854 25.22 12.4 54.3 59 4.6 40.2
08:40 1024 30.24 854 25.22 12.8 55 58 4.9 40.7
08:45 1024 30.24 853 25.19 13 55.5 58 4.9 40.8
08:50 1024 30.24 854 25.22 13.4 56.1 58 5.3 41.6
08:55 1024 30.24 854 25.22 13.5 56.3 56 5 41.1
09:00 1024 30.24 854 25.22 14.5 58.1 51 4.6 40.2
09:05 1024 30.24 853 25.19 15.1 59.1 50 4.9 40.7
09:10 1024 30.24 853 25.19 15.4 59.7 49 4.9 40.9
09:15 1024 30.24 853 25.19 15.3 59.5 49 4.7 40.4
09:20 1024 30.24 853 25.19 15.5 59.9 48 4.8 40.6
09:25 1024 30.24 853 25.19 16.3 61.4 43 3.8 38.9
09:30 1024 30.24 853 25.19 17 62.5 41 3.9 39
09:35 1024 30.24 853 25.19 17.5 63.4 40 3.7 38.7
09:40 1024 30.24 853 25.19 18 64.4 36 2.7 36.9
09:45 1024 30.24 853 25.19 18.2 64.7 37 3.4 38.1
09:50 1024 30.24 853 25.19 17.9 64.2 37 3.3 38
09:55 1024 30.24 853 25.19 18.4 65.1 36 3.4 38
10:00 1024 30.24 853 25.19 18.4 65.1 37 3.4 38.2
10:05 1024 30.24 853 25.19 17.9 64.2 37 3 37.4
10:10 1024 30.24 853 25.19 17.8 64.1 38 3.3 37.9
10:15 1024 30.24 853 25.19 18.4 65 37 3.5 38.2
10:20 1024 30.24 853 25.19 18.8 65.9 35 3.3 37.9
10:25 1024 30.24 853 25.19 19 66.2 34 2.9 37.2
10:30 1024 30.24 853 25.19 19.1 66.4 34 3 37.5
10:35 1024 30.24 853 25.19 19.4 66.9 33 2.9 37.3
10:40 1024 30.24 853 25.19 20 67.9 33 3.5 38.3
10:45 1024 30.24 853 25.19 19.3 66.7 35 3.6 38.5
10:50 1023 30.21 853 25.19 19.6 67.3 34 3.5 38.3
10:55 1023 30.21 853 25.19 19.7 67.4 36 4.2 39.6
11:00 1023 30.21 853 25.19 20.2 68.4 35 4.5 40.1
11:05 1023 30.21 853 25.19 20.3 68.6 36 4.9 40.9
11:10 1023 30.21 853 25.19 20.6 69 33 3.8 38.8
11:15 1023 30.21 853 25.19 20.5 68.9 34 4.3 39.7
11:20 1023 30.21 853 25.19 19.9 67.9 35 4.2 39.6
11:25 1023 30.21 853 25.19 19.9 67.9 35 4.3 39.7
11:30 1023 30.21 852 25.16 20.5 68.8 32 3.2 37.7
11:35 1023 30.21 852 25.16 21.4 70.5 30 3.2 37.8
11:40 1023 30.21 852 25.16 22.2 72 28 2.9 37.2
11:45 1023 30.21 852 25.16 22.8 73.1 28 3.6 38.4
11:50 1023 30.21 852 25.16 23.2 73.8 27 3.2 37.7
11:55 1023 30.21 852 25.16 23.6 74.4 25 2.9 37.1
12:00 1023 30.21 852 25.16 23.4 74.1 27 3.7 38.7
12:05 1023 30.21 852 25.16 23.3 73.9 26 2.7 36.8
12:10 1023 30.21 852 25.16 23.9 75.1 24 2.2 36
12:15 1023 30.21 852 25.16 24.3 75.7 23 2.4 36.3
12:20 1023 30.21 852 25.16 24.4 75.8 24 2.6 36.7
12:25 1023 30.21 852 25.16 24.3 75.7 25 3.1 37.6
12:30 1023 30.21 852 25.16 24.5 76 25 3.5 38.3
12:35 1022 30.18 852 25.16 24.4 76 25 3.3 38
12:40 1022 30.18 852 25.16 24.1 75.4 24 2.6 36.6
12:45 1022 30.18 852 25.16 24.2 75.5 23 1.9 35.4
12:50 1022 30.18 852 25.16 24.5 76.1 23 2.3 36.1
12:55 1022 30.18 851 25.13 24.5 76 22 1.9 35.3
13:00 1022 30.18 851 25.13 24 75.2 23 1.8 35.3
13:05 1022 30.18 851 25.13 24.2 75.5 22 1.2 34.2
13:10 1022 30.18 851 25.13 24.4 76 22 1.3 34.3
13:15 1022 30.18 851 25.13 24.5 76.2 21 0.9 33.7
13:20 1022 30.18 851 25.13 24.2 75.5 23 1.8 35.3
13:25 1022 30.18 851 25.13 24.6 76.2 21 1 33.8
13:30 1022 30.18 851 25.13 25.4 77.6 20 1.3 34.3
13:35 1022 30.18 851 25.13 24.6 76.2 21 0.8 33.4
13:40 1022 30.18 851 25.13 25 76.9 20 0.9 33.7
13:45 1022 30.18 851 25.13 25.7 78.2 20 1.6 34.9
13:50 1022 30.18 851 25.13 26.1 79 20 1.7 35.1
13:55 1022 30.18 851 25.13 25 76.9 21 1.3 34.4
14:00 1021 30.15 851 25.13 25.4 77.6 20 1.2 34.2
14:05 1021 30.15 851 25.13 25.4 77.6 20 1.4 34.5
14:10 1021 30.15 851 25.13 25.7 78.2 21 1.6 35
14:15 1021 30.15 850 25.1 25.5 77.8 21 1.6 34.9
14:20 1021 30.15 850 25.1 25.6 78.1 19 0.5 32.9
14:25 1021 30.15 850 25.1 26.5 79.6 19 1.2 34.2
14:30 1021 30.15 850 25.1 26.8 80.2 19 1.5 34.6
14:35 1021 30.15 850 25.1 26.8 80.3 18 0.5 32.8
14:40 1021 30.15 850 25.1 26.5 79.8 18 0.6 33.2
14:45 1021 30.15 850 25.1 26.7 80.1 18 0.6 33.1
14:50 1021 30.15 850 25.1 27.2 80.9 17 0.2 32.3
14:55 1021 30.15 850 25.1 27.1 80.8 19 1.7 35.1
15:00 1021 30.15 850 25.1 27.1 80.7 18 1.3 34.3
15:05 1021 30.15 850 25.1 27.1 80.8 18 1.2 34.2
15:10 1021 30.15 850 25.1 27.1 80.8 18 1.2 34.2
15:15 1021 30.15 850 25.1 27.2 80.9 17 0.1 32.2
15:20 1021 30.15 850 25.1 27.1 80.8 14 -2.1 28.2
15:25 1021 30.15 850 25.1 26.9 80.4 15 -2 28.5
15:30 1021 30.15 850 25.1 26.9 80.4 14 -2.3 27.9
15:35 1021 30.15 850 25.1 26.8 80.3 15 -1.6 29.2
15:40 1021 30.15 850 25.1 26.9 80.4 16 -1.1 30.1
15:45 1021 30.15 850 25.1 26.9 80.5 15 -1.2 29.8
15:50 1021 30.15 850 25.1 26.7 80 17 0 32.1
15:55 1021 30.15 850 25.1 26.5 79.6 16 -0.8 30.6
16:00 1021 30.15 850 25.1 26.6 79.8 17 0 32.1
16:05 1021 30.15 850 25.1 26.6 80 18 1 33.7
16:10 1021 30.15 850 25.1 26.6 79.9 18 0.8 33.4
16:15 1021 30.15 850 25.1 26.6 80 18 0.8 33.5
16:20 1021 30.15 850 25.1 26.6 79.8 18 0.9 33.6
16:25 1021 30.15 850 25.1 26.5 79.7 21 2.5 36.4
16:30 1021 30.15 850 25.1 26.4 79.5 19 1.2 34.2
16:35 1021 30.15 850 25.1 26.5 79.7 19 1.3 34.4
16:40 1021 30.15 850 25.1 26.4 79.5 19 1.3 34.4
16:45 1021 30.15 850 25.1 26.3 79.3 20 2 35.5
16:50 1021 30.15 850 25.1 26 78.8 21 2 35.6
16:55 1021 30.15 850 25.1 25.9 78.6 20 1.7 35
17:00 1021 30.15 850 25.1 25.7 78.3 21 2.3 36.1
17:05 1021 30.15 850 25.1 25.2 77.4 21 1.7 35
17:10 1021 30.15 850 25.1 24.7 76.4 22 2.1 35.7
17:15 1021 30.15 850 25.1 24.2 75.6 24 2.3 36.2
17:20 1021 30.15 850 25.1 24 75.1 24 2.2 36
17:25 1021 30.15 850 25.1 24.1 75.3 24 2.6 36.7
17:30 1021 30.15 850 25.1 23.8 74.8 24 2.2 36
17:35 1021 30.15 850 25.1 23.4 74.1 24 1.8 35.2
17:40 1021 30.15 850 25.1 23.2 73.8 25 2 35.7
17:45 1021 30.15 850 25.1 21.9 71.4 26 1.8 35.2
17:50 1021 30.15 850 25.1 21.2 70.2 26 1 33.8
17:55 1021 30.15 850 25.1 21.1 69.9 25 0.3 32.6
18:00 1021 30.15 850 25.1 21.4 70.4 24 0.3 32.6
18:05 1021 30.15 850 25.1 21.6 70.8 25 0.7 33.2
18:10 1021 30.15 850 25.1 21.4 70.6 27 1.8 35.2
18:15 1021 30.15 850 25.1 20.9 69.5 28 1.9 35.4
18:20 1021 30.15 850 25.1 20 68.1 31 2.6 36.8
18:25 1021 30.15 850 25.1 19.5 67 32 2.3 36.2
18:30 1021 30.15 850 25.1 18.8 65.8 33 2.3 36.2
18:35 1021 30.15 850 25.1 17.9 64.2 36 2.8 37
18:40 1021 30.15 850 25.1 17.3 63.2 36 2.4 36.3
18:45 1021 30.15 850 25.1 17.4 63.2 38 3.2 37.8
18:50 1021 30.15 850 25.1 17.2 62.9 37 2.5 36.6
18:55 1021 30.15 850 25.1 17.1 62.8 36 2 35.6
19:00 1021 30.15 850 25.1 16.9 62.4 37 2.1 35.7
19:05 1021 30.15 850 25.1 17.1 62.7 34 1.2 34.2
19:10 1021 30.15 850 25.1 17.4 63.2 33 1.2 34.1
19:15 1021 30.15 850 25.1 17.6 63.7 31 0.6 33
19:20 1021 30.15 850 25.1 18 64.3 31 0.7 33.3
19:25 1021 30.15 850 25.1 17.9 64.2 31 0.8 33.5
19:30 1021 30.15 850 25.1 17.7 63.9 32 1 33.8
19:35 1021 30.15 850 25.1 18 64.3 29 0 32
19:40 1021 30.15 850 25.1 18.3 64.9 31 0.8 33.5
19:45 1021 30.15 850 25.1 18.4 65.2 30 0.7 33.2
19:50 1021 30.15 850 25.1 18.6 65.5 29 0.4 32.8
19:55 1021 30.15 850 25.1 18.9 66 29 0.7 33.3
20:00 1021 30.15 850 25.1 18.6 65.5 30 0.7 33.3
20:05 1021 30.15 850 25.1 18.5 65.3 29 0.2 32.3
20:10 1021 30.15 850 25.1 18.9 66 28 -0 31.9
20:15 1021 30.15 850 25.1 19.2 66.5 28 0.2 32.3
20:20 1021 30.15 850 25.1 19 66.1 28 0.2 32.4
20:25 1021 30.15 850 25.1 18.7 65.6 30 0.7 33.3
20:30 1021 30.15 850 25.1 18.2 64.7 30 0.4 32.7
20:35 1021 30.15 850 25.1 18.2 64.8 29 0.1 32.1
20:40 1021 30.15 850 25.1 18.2 64.7 30 0.3 32.5
20:45 1021 30.15 850 25.1 18.1 64.6 30 0.3 32.5
20:50 1021 30.15 850 25.1 18.1 64.5 31 0.8 33.4
20:55 1020 30.12 850 25.1 17.7 63.8 31 0.5 33
21:00 1020 30.12 850 25.1 17.8 64 31 0.4 32.7
21:05 1020 30.12 850 25.1 17.8 64 31 0.6 33.2
21:10 1020 30.12 850 25.1 17.3 63.2 32 0.5 32.9
21:15 1020 30.12 850 25.1 17.1 62.9 33 1 33.8
21:20 1021 30.15 850 25.1 16.5 61.6 36 1.5 34.6
21:25 1021 30.15 850 25.1 16.4 61.4 33 0.1 32.2
21:30 1021 30.15 850 25.1 17 62.7 31 -0.3 31.5
21:35 1021 30.15 850 25.1 17.6 63.6 30 0.1 32.3
21:40 1021 30.15 850 25.1 17.7 63.9 30 0.1 32.3
21:45 1021 30.15 850 25.1 17.6 63.8 30 -0 32
21:50 1020 30.12 850 25.1 17.5 63.6 31 0.4 32.8
21:55 1021 30.15 850 25.1 17.2 63 31 0.3 32.5
22:00 1021 30.15 850 25.1 17.3 63.1 31 0.2 32.4
22:05 1021 30.15 850 25.1 17.3 63.1 32 0.6 33.1
22:10 1021 30.15 850 25.1 16.9 62.4 33 0.4 32.7
22:15 1021 30.15 850 25.1 16.7 62.1 32 0.3 32.5
22:20 1021 30.15 850 25.1 16.6 61.9 33 0.4 32.7
22:25 1021 30.15 850 25.1 16.7 62 32 -0.1 31.8
22:30 1021 30.15 850 25.1 16.8 62.3 32 -0 31.9
22:35 1021 30.15 850 25.1 16.8 62.3 32 0.1 32.3
22:40 1021 30.15 850 25.1 16.5 61.7 33 0.1 32.2
22:45 1021 30.15 850 25.1 16.3 61.3 32 -0.2 31.7
22:50 1021 30.15 850 25.1 16.4 61.6 32 -0.2 31.7
22:55 1021 30.15 850 25.1 16.6 61.9 31 -0.4 31.4
23:00 1021 30.15 850 25.1 16.6 62 32 0 32
23:05 1021 30.15 850 25.1 16.3 61.3 33 0.1 32.2
23:10 1021 30.15 850 25.1 15.9 60.6 33 -0.4 31.4
23:15 1021 30.15 850 25.1 16 60.9 33 -0.2 31.6
23:20 1020 30.12 850 25.1 16.2 61.2 32 -0.3 31.5
23:25 1020 30.12 850 25.1 16.4 61.5 32 -0.5 31.2
23:30 1020 30.12 850 25.1 16.4 61.5 33 0.2 32.3
23:35 1020 30.12 850 25.1 15.6 60 34 -0 32
23:40 1020 30.12 850 25.1 15.4 59.7 36 0.4 32.8
23:45 1020 30.12 850 25.1 14.9 58.8 37 0.3 32.5
23:50 1020 30.12 850 25.1 14.9 58.8 36 0.1 32.2
23:55 1021 30.15 850 25.1 14.9 58.9 36 0.2 32.4
24:00 1020 30.12 850 25.1 15.1 59.1 36 0.1 32.2